Shishmaref, AK

7:57 AM AKDT on September 19, 2014 (GMT -0800)
New Shishmaref | Change Station
CLOSE
Current Station
Airport
Location: Shishmaref,
Elevation: 13 ft
Nearby Weather Stations

Elev 13 ft 66.25 °N, 166.09 °W | Updated 21 minutes ago

Overcast
Overcast
45 °F
Feels Like 36 °F
N
22
Wind Variable Wind from North

Today
High -- | Low -- °F
--% Chance of Precip.
Yesterday
High -- | Low -- °F
Precip. -- in
8:37 AM 9:16 PM
Waning Crescent, 18% visible
Pressure 29.52 in
Visibility 7.0 miles
Clouds Overcast 1600 ft
Windchill 36 °F
Dew Point 37 °F
Humidity 76%
Rainfall 0.00 in
Snow Depth 0 in , 0 in , 0 in
UV 0 out of 12
Pollen Not available.
Air Quality Not available.
Flu Activity Not available.
METAR PASH 191536Z AUTO 35019KT 7SM OVC016 07/03 A2952 RMK AO1

More Conditions Fewer Conditions

Pressure 29.52 in
Visibility 7.0 miles
Clouds Overcast 1600 ft
Windchill 36 °F
Dew Point 37 °F
Humidity 76%
Rainfall 0.00 in
Snow Depth 0 in , 0 in , 0 in
UV 0 out of 12
Pollen Not available.
Air Quality Not available.
Flu Activity Not available.
METAR PASH 191536Z AUTO 35019KT 7SM OVC016 07/03 A2952 RMK AO1

More Conditions Fewer Conditions

10-Day Weather Forecast

Almanac

Astronomy

Sep. 19, 2014 Rise Set
Actual Time 8:37 AM AKDT 9:16 PM AKDT
Civil Twilight 7:45 AM AKDT 10:08 PM AKDT
Nautical Twilight 6:39 AM AKDT 11:13 PM AKDT
Astronomical Twilight 5:16 AM AKDT 12:34 AM AKDT
Moon 3:10 AM AKDT 8:01 PM AKDT
Length of Visible Light 14h 23m
Length of Day
12h 38m
Tomorrow will be 7m 6s shorter.
Waning Crescent, 18% of the Moon is Illuminated
Today
Waning Crescent
Sep 24
New
Oct 1
First Quarter
Oct 8
Full
Oct 15
Last Quarter

Today's Extremes

State Highs State Lows

Community

WunderPhotos

Upload Photos

1,754,637 photos uploaded!

WunderBlogs® & News

By Dr. Jeff Masters
Director of Meteorology, Weather Underground
By Kari Strenfel
Meteorologist, Weather Underground
By Christopher C. Burt
Weather Historian, Weather Underground
September 19, 2014
September 19, 2014
September 19, 2014

Nearby

Snow Depth

Station Depth Elevation
Eagle Summit 0 in 3650 ft
Upper Tsaina River 0 in 1750 ft
Port Graham 0 in 300 ft
Nuka Glacier 164 in 1250 ft
Indian Pass 1 in 2300 ft

Earthquake Activity

City Distance Mag. Time & Date
No recent earthquake activity has been reported nearby.
Minimum magnitude displayed is 2.5.

Coastal Water Temperatures

Place Temperature
No Stations Reporting

Nearby Weather Stations